createdAt,value
2018-09-10T00:00:29.582Z,2.30
2018-09-10T00:02:56.515Z,2.57
2018-09-10T00:05:24.387Z,2.30
2018-09-10T00:07:52.151Z,1.97
2018-09-10T00:10:19.024Z,2.07
2018-09-10T00:12:45.978Z,2.40
2018-09-10T00:15:13.227Z,2.27
2018-09-10T00:17:40.191Z,2.50
2018-09-10T00:20:07.167Z,2.30
2018-09-10T00:22:34.107Z,2.40
2018-09-10T00:25:01.043Z,2.17
2018-09-10T00:27:28.056Z,2.33
2018-09-10T00:29:55.907Z,2.57
2018-09-10T00:32:23.051Z,2.23
2018-09-10T00:34:52.999Z,2.20
2018-09-10T00:37:19.950Z,2.30
2018-09-10T00:39:46.911Z,2.40
2018-09-10T00:42:13.876Z,2.40
2018-09-10T00:44:40.827Z,2.10
2018-09-10T00:47:07.788Z,2.00
2018-09-10T00:49:34.751Z,2.00
2018-09-10T00:52:01.624Z,2.20
2018-09-10T00:54:28.559Z,2.07
2018-09-10T00:56:55.511Z,2.10
2018-09-10T00:59:23.391Z,2.13
2018-09-10T01:01:50.364Z,2.50
2018-09-10T01:04:17.313Z,2.13
2018-09-10T01:06:44.255Z,2.17
2018-09-10T01:09:11.226Z,2.43
2018-09-10T01:11:38.678Z,2.13
2018-09-10T01:14:05.664Z,2.50
2018-09-10T01:16:32.584Z,2.20
2018-09-10T01:18:59.574Z,2.50
2018-09-10T01:21:26.503Z,2.00
2018-09-10T01:23:53.519Z,2.20
2018-09-10T01:26:20.467Z,2.07
2018-09-10T01:28:47.392Z,2.60
2018-09-10T01:31:14.367Z,3.43
2018-09-10T01:33:46.972Z,2.23
2018-09-10T01:36:13.898Z,2.23
2018-09-10T01:38:41.039Z,2.10
2018-09-10T01:41:08.015Z,1.90
2018-09-10T01:43:34.992Z,2.70
2018-09-10T01:46:02.123Z,2.30
2018-09-10T01:48:29.922Z,2.40
2018-09-10T01:50:56.940Z,2.00
2018-09-10T01:53:23.821Z,2.53
2018-09-10T01:55:50.686Z,2.27
2018-09-10T01:58:17.643Z,2.30
2018-09-10T02:00:44.599Z,2.13
2018-09-10T02:03:11.559Z,2.50
2018-09-10T02:05:38.480Z,2.50
2018-09-10T02:08:05.463Z,2.40
2018-09-10T02:10:32.422Z,2.10
2018-09-10T02:12:59.387Z,1.87
2018-09-10T02:15:27.364Z,1.70
2018-09-10T02:17:54.334Z,2.03
2018-09-10T02:20:21.328Z,2.27
2018-09-10T02:22:48.239Z,2.67
2018-09-10T02:25:15.193Z,2.17
2018-09-10T02:27:42.193Z,2.23
2018-09-10T02:30:09.943Z,2.37
2018-09-10T02:32:36.884Z,2.20
2018-09-10T02:35:03.767Z,2.10
2018-09-10T02:37:30.809Z,2.40
2018-09-10T02:39:57.730Z,2.60
2018-09-10T02:42:24.716Z,2.37
2018-09-10T02:44:51.679Z,2.77
2018-09-10T02:47:18.635Z,2.10
2018-09-10T02:49:45.563Z,2.80
2018-09-10T02:52:12.548Z,2.47
2018-09-10T02:54:39.534Z,2.07
2018-09-10T02:57:06.507Z,1.90
2018-09-10T02:59:33.450Z,2.23
2018-09-10T03:02:00.416Z,1.80
2018-09-10T03:04:27.352Z,2.20
2018-09-10T03:06:54.323Z,1.80
2018-09-10T03:09:21.272Z,2.00
2018-09-10T03:11:48.227Z,2.10
2018-09-10T03:14:15.177Z,2.37
2018-09-10T03:16:43.135Z,2.50
2018-09-10T03:19:10.127Z,2.20
2018-09-10T03:21:37.063Z,1.93
2018-09-10T03:24:04.042Z,2.10
2018-09-10T03:26:31.066Z,2.10
2018-09-10T03:28:58.068Z,2.87
2018-09-10T03:31:25.083Z,1.97
2018-09-10T03:33:51.980Z,2.27
2018-09-10T03:36:18.864Z,2.33
2018-09-10T03:38:45.858Z,2.30
2018-09-10T03:41:12.839Z,2.67
2018-09-10T03:43:39.759Z,2.30
2018-09-10T03:46:06.803Z,1.90
2018-09-10T03:48:33.759Z,2.73
2018-09-10T03:51:00.670Z,1.93
2018-09-10T03:53:27.593Z,2.10
2018-09-10T03:55:54.584Z,2.40
2018-09-10T03:58:21.535Z,1.90
2018-09-10T04:00:48.617Z,2.03
2018-09-10T04:03:15.585Z,2.00
2018-09-10T04:05:43.979Z,1.90
2018-09-10T04:08:10.911Z,2.00
2018-09-10T04:10:37.868Z,1.77
2018-09-10T04:13:04.822Z,1.90
2018-09-10T04:15:31.825Z,2.40
2018-09-10T04:17:58.711Z,2.50
2018-09-10T04:20:25.683Z,2.27
2018-09-10T04:22:52.627Z,2.33
2018-09-10T04:25:19.574Z,2.87
2018-09-10T04:27:46.575Z,2.30
2018-09-10T04:30:15.068Z,1.83
2018-09-10T04:32:42.003Z,2.60
2018-09-10T04:35:09.564Z,2.20
2018-09-10T04:37:36.971Z,2.40
2018-09-10T04:40:04.191Z,2.03
2018-09-10T04:42:31.072Z,2.10
2018-09-10T04:44:57.984Z,2.10
2018-09-10T04:47:25.023Z,2.83
2018-09-10T04:49:52.013Z,2.37
2018-09-10T04:52:18.964Z,2.60
2018-09-10T04:54:45.875Z,1.90
2018-09-10T04:57:12.799Z,2.30
2018-09-10T04:59:39.775Z,2.80
2018-09-10T05:02:06.723Z,2.00
2018-09-10T05:04:33.728Z,2.60
2018-09-10T05:07:00.632Z,2.13
2018-09-10T05:09:27.591Z,2.60
2018-09-10T05:11:54.536Z,2.00
2018-09-10T05:14:22.532Z,2.70
2018-09-10T05:16:50.535Z,2.67
2018-09-10T05:19:17.523Z,2.47
2018-09-10T05:21:44.437Z,2.20
2018-09-10T05:24:11.384Z,2.17
2018-09-10T05:26:38.345Z,1.90
2018-09-10T05:29:05.300Z,2.00
2018-09-10T05:31:32.259Z,2.27
2018-09-10T05:33:59.252Z,2.27
2018-09-10T05:36:26.164Z,2.23
2018-09-10T05:38:53.162Z,2.20
2018-09-10T05:41:20.084Z,2.10
2018-09-10T05:43:47.047Z,2.50
2018-09-10T05:46:14.050Z,2.37
2018-09-10T05:48:41.983Z,2.97
2018-09-10T05:51:08.943Z,3.50
2018-09-10T05:53:35.900Z,2.30
2018-09-10T05:56:02.844Z,2.80
2018-09-10T05:58:29.807Z,2.97
2018-09-10T06:00:56.776Z,3.00
2018-09-10T06:03:23.736Z,4.13
2018-09-10T06:05:50.679Z,3.80
2018-09-10T06:08:17.607Z,4.43
2018-09-10T06:10:44.708Z,3.80
2018-09-10T06:13:11.692Z,3.90
2018-09-10T06:15:38.619Z,3.70
2018-09-10T06:18:05.755Z,3.50
2018-09-10T06:20:33.506Z,4.07
2018-09-10T06:23:02.623Z,3.17
2018-09-10T06:25:30.138Z,3.47
2018-09-10T06:27:58.143Z,3.53
2018-09-10T06:30:25.141Z,4.00
2018-09-10T06:32:52.052Z,3.30
2018-09-10T06:35:19.179Z,3.27
2018-09-10T06:37:46.152Z,3.90
2018-09-10T06:40:13.112Z,2.93
2018-09-10T06:42:40.071Z,4.47
2018-09-10T06:45:07.671Z,3.70
2018-09-10T06:47:34.616Z,3.87
2018-09-10T06:50:01.593Z,3.73
2018-09-10T06:52:28.512Z,3.00
2018-09-10T06:54:55.473Z,3.27
2018-09-10T06:57:23.486Z,2.97
2018-09-10T06:59:50.468Z,2.80
2018-09-10T07:02:17.332Z,2.40
2018-09-10T07:04:44.295Z,3.00
2018-09-10T07:07:11.260Z,3.27
2018-09-10T07:09:38.239Z,2.77
2018-09-10T07:12:05.254Z,2.60
2018-09-10T07:14:32.155Z,3.10
2018-09-10T07:16:59.107Z,3.07
2018-09-10T07:19:26.078Z,2.70
2018-09-10T07:21:53.037Z,2.97
2018-09-10T07:24:19.955Z,3.10
2018-09-10T07:26:46.990Z,3.10
2018-09-10T07:29:13.859Z,3.30
2018-09-10T07:31:40.885Z,3.53
2018-09-10T07:34:07.822Z,2.97
2018-09-10T07:36:34.772Z,3.57
2018-09-10T07:39:01.729Z,4.05
2018-09-10T07:41:28.687Z,3.85
2018-09-10T07:43:55.726Z,3.60
2018-09-10T07:46:22.607Z,3.60
2018-09-10T07:48:49.603Z,3.17
2018-09-10T07:51:17.435Z,3.40
2018-09-10T07:53:44.364Z,3.50
2018-09-10T07:56:11.231Z,3.57
2018-09-10T07:58:38.212Z,3.23
2018-09-10T08:01:05.236Z,3.20
2018-09-10T08:03:32.267Z,3.10
2018-09-10T08:05:59.143Z,3.00
2018-09-10T08:08:26.135Z,2.97
2018-09-10T08:10:53.095Z,3.03
2018-09-10T08:13:20.070Z,3.10
2018-09-10T08:15:47.024Z,3.23
2018-09-10T08:18:13.976Z,3.30
2018-09-10T08:20:40.895Z,2.87
2018-09-10T08:23:07.879Z,3.33
2018-09-10T08:25:34.841Z,2.90
2018-09-10T08:28:01.841Z,2.90
2018-09-10T08:30:28.773Z,3.40
2018-09-10T08:32:56.728Z,3.40
2018-09-10T08:35:23.688Z,2.80
2018-09-10T08:37:50.550Z,2.90
2018-09-10T08:40:17.503Z,2.63
2018-09-10T08:42:44.508Z,2.80
2018-09-10T08:45:11.428Z,3.00
2018-09-10T08:47:38.380Z,3.13
2018-09-10T08:50:06.243Z,2.53
2018-09-10T08:52:33.098Z,2.77
2018-09-10T08:55:00.228Z,2.83
2018-09-10T08:57:27.747Z,2.77
2018-09-10T08:59:54.849Z,2.90
2018-09-10T09:02:21.898Z,3.30
2018-09-10T09:04:48.804Z,3.27
2018-09-10T09:07:15.780Z,2.57
2018-09-10T09:09:42.741Z,3.13
2018-09-10T09:12:09.747Z,2.63
2018-09-10T09:14:36.648Z,3.00
2018-09-10T09:17:03.635Z,3.30
2018-09-10T09:19:30.543Z,4.00
2018-09-10T09:21:57.538Z,2.90
2018-09-10T09:24:24.487Z,2.90
2018-09-10T09:26:51.415Z,3.23
2018-09-10T09:29:18.396Z,2.80
2018-09-10T09:31:45.372Z,2.53
2018-09-10T09:34:12.316Z,2.80
2018-09-10T09:36:45.007Z,2.50
2018-09-10T09:39:17.731Z,2.50
2018-09-10T09:41:50.371Z,2.40
2018-09-10T09:44:22.963Z,2.80
2018-09-10T09:46:49.939Z,2.40
2018-09-10T09:49:16.948Z,2.73
2018-09-10T09:51:43.860Z,2.87
2018-09-10T09:54:11.143Z,2.30
2018-09-10T09:56:38.154Z,2.37
2018-09-10T09:59:05.032Z,2.50
2018-09-10T10:01:37.808Z,2.03
2018-09-10T10:04:07.769Z,2.23
2018-09-10T10:06:35.379Z,2.50
2018-09-10T10:09:02.331Z,2.50
2018-09-10T10:11:29.227Z,2.40
2018-09-10T10:13:56.202Z,2.23
2018-09-10T10:16:23.234Z,2.40
2018-09-10T10:18:50.124Z,2.40
2018-09-10T10:21:17.082Z,2.50
2018-09-10T10:23:44.083Z,2.47
2018-09-10T10:26:11.027Z,2.20
2018-09-10T10:28:38.005Z,2.20
2018-09-10T10:31:05.134Z,2.10
2018-09-10T10:33:32.069Z,1.90
2018-09-10T10:35:59.022Z,2.00
2018-09-10T10:38:26.003Z,2.23
2018-09-10T10:40:52.948Z,1.93
2018-09-10T10:43:19.829Z,2.00
2018-09-10T10:45:46.736Z,2.03
2018-09-10T10:48:13.711Z,1.90
2018-09-10T10:50:40.706Z,1.80
2018-09-10T10:53:07.655Z,1.90
2018-09-10T10:55:34.583Z,2.00
2018-09-10T10:58:01.537Z,2.27
2018-09-10T11:00:28.512Z,1.87
2018-09-10T11:02:55.470Z,2.33
2018-09-10T11:05:22.471Z,2.10
2018-09-10T11:07:49.472Z,2.10
2018-09-10T11:10:16.440Z,1.90
2018-09-10T11:12:43.381Z,1.77
2018-09-10T11:15:10.346Z,2.20
2018-09-10T11:17:37.281Z,2.10
2018-09-10T11:20:04.716Z,1.90
2018-09-10T11:22:31.645Z,2.00
2018-09-10T11:24:58.581Z,1.90
2018-09-10T11:27:25.540Z,2.00
2018-09-10T11:29:52.540Z,2.00
2018-09-10T11:32:19.455Z,1.70
2018-09-10T11:34:46.576Z,2.40
2018-09-10T11:37:13.475Z,1.90
2018-09-10T11:39:40.555Z,1.40
2018-09-10T11:42:07.495Z,1.57
2018-09-10T11:44:34.643Z,2.20
2018-09-10T11:47:01.965Z,2.20
2018-09-10T11:49:28.851Z,1.70
2018-09-10T11:51:55.855Z,2.17
2018-09-10T11:54:22.788Z,1.73
2018-09-10T11:56:49.890Z,1.70
2018-09-10T11:59:16.932Z,1.90
2018-09-10T12:01:44.194Z,1.77
2018-09-10T12:04:11.199Z,2.00
2018-09-10T12:06:38.111Z,1.63
2018-09-10T12:09:06.311Z,1.90
2018-09-10T12:11:33.232Z,1.77
2018-09-10T12:14:00.188Z,1.77
2018-09-10T12:16:27.155Z,1.73
2018-09-10T12:18:54.079Z,1.80
2018-09-10T12:21:21.293Z,1.70
2018-09-10T12:23:48.216Z,1.62
2018-09-10T12:26:15.351Z,1.60
2018-09-10T12:28:42.387Z,1.43
2018-09-10T12:31:09.303Z,1.50
2018-09-10T12:33:36.510Z,1.60
2018-09-10T12:36:03.418Z,1.30
2018-09-10T12:38:30.387Z,1.53
2018-09-10T12:40:57.455Z,1.50
2018-09-10T12:43:25.364Z,1.47
2018-09-10T12:45:52.388Z,1.50
2018-09-10T12:48:19.327Z,1.60
2018-09-10T12:50:46.260Z,1.63
2018-09-10T12:53:13.247Z,2.00
2018-09-10T12:55:40.395Z,1.30
2018-09-10T12:58:07.391Z,1.50
2018-09-10T13:00:34.326Z,1.40
2018-09-10T13:03:01.383Z,1.43
2018-09-10T13:05:28.355Z,1.60
2018-09-10T13:07:55.409Z,1.50
2018-09-10T13:10:22.607Z,1.70
2018-09-10T13:12:49.541Z,1.77
2018-09-10T13:15:16.518Z,1.40
2018-09-10T13:17:43.443Z,1.63
2018-09-10T13:20:10.419Z,1.70
2018-09-10T13:22:37.351Z,1.57
2018-09-10T13:25:04.376Z,1.80
2018-09-10T13:27:31.379Z,2.13
2018-09-10T13:29:58.336Z,1.47
2018-09-10T13:32:25.305Z,1.97
2018-09-10T13:34:52.252Z,1.57
2018-09-10T13:37:19.201Z,1.70
2018-09-10T13:39:46.197Z,1.73
2018-09-10T13:42:13.111Z,1.43
2018-09-10T13:44:40.102Z,1.33
2018-09-10T13:47:07.109Z,1.40
2018-09-10T13:49:34.054Z,1.40
2018-09-10T13:52:00.950Z,1.30
2018-09-10T13:54:28.059Z,1.40
2018-09-10T13:56:55.071Z,1.40
2018-09-10T13:59:22.146Z,1.63
2018-09-10T14:01:49.090Z,1.67
2018-09-10T14:04:16.075Z,1.43
2018-09-10T14:06:43.063Z,1.50
2018-09-10T14:09:09.975Z,1.30
2018-09-10T14:11:37.408Z,2.27
2018-09-10T14:14:04.506Z,1.67
2018-09-10T14:16:31.427Z,1.53
2018-09-10T14:18:58.381Z,1.50
2018-09-10T14:21:25.283Z,1.67
2018-09-10T14:23:52.208Z,1.70
2018-09-10T14:26:19.135Z,1.90
2018-09-10T14:28:46.172Z,1.70
2018-09-10T14:31:13.101Z,1.67
2018-09-10T14:33:40.071Z,1.70
2018-09-10T14:36:06.975Z,1.70
2018-09-10T14:38:33.979Z,2.03
2018-09-10T14:41:00.923Z,1.67
2018-09-10T14:43:28.097Z,1.43
2018-09-10T14:45:55.039Z,1.80
2018-09-10T14:48:22.185Z,1.90
2018-09-10T14:50:49.193Z,1.63
2018-09-10T14:53:16.195Z,1.50
2018-09-10T14:55:43.171Z,1.50
2018-09-10T14:58:10.051Z,1.10
2018-09-10T15:00:37.009Z,1.30
2018-09-10T15:03:04.028Z,1.43
2018-09-10T15:05:31.047Z,1.40
2018-09-10T15:07:58.108Z,1.57
2018-09-10T15:10:25.031Z,1.47
2018-09-10T15:12:52.017Z,1.40
2018-09-10T15:15:18.946Z,1.30
2018-09-10T15:17:46.124Z,1.10
2018-09-10T15:20:13.032Z,1.30
2018-09-10T15:22:40.504Z,1.33
2018-09-10T15:25:07.517Z,1.27
2018-09-10T15:27:34.451Z,1.37
2018-09-10T15:30:01.375Z,1.60
2018-09-10T15:32:28.360Z,1.10
2018-09-10T15:34:55.358Z,1.20
2018-09-10T15:37:22.275Z,1.13
2018-09-10T15:39:49.240Z,1.20
2018-09-10T15:42:16.290Z,1.50
2018-09-10T15:44:43.247Z,1.37
2018-09-10T15:47:10.260Z,1.70
2018-09-10T15:49:37.272Z,1.40
2018-09-10T15:52:04.211Z,1.70
2018-09-10T15:54:31.348Z,1.33
2018-09-10T15:56:58.247Z,1.43
2018-09-10T15:59:25.192Z,1.67
2018-09-10T16:01:52.247Z,1.40
2018-09-10T16:04:19.213Z,1.30
2018-09-10T16:06:46.172Z,1.13
2018-09-10T16:09:13.127Z,1.50
2018-09-10T16:11:40.166Z,1.37
2018-09-10T16:14:07.123Z,1.40
2018-09-10T16:16:34.107Z,1.63
2018-09-10T16:19:01.351Z,1.47
2018-09-10T16:21:28.316Z,1.53
2018-09-10T16:23:55.276Z,1.27
2018-09-10T16:26:22.212Z,1.40
2018-09-10T16:28:49.192Z,1.50
2018-09-10T16:31:16.155Z,1.33
2018-09-10T16:33:43.160Z,1.30
2018-09-10T16:36:10.040Z,1.27
2018-09-10T16:38:37.041Z,1.40
2018-09-10T16:41:04.005Z,1.50
2018-09-10T16:43:30.981Z,1.30
2018-09-10T16:45:57.899Z,1.63
2018-09-10T16:48:24.970Z,1.90
2018-09-10T16:50:51.907Z,1.53
2018-09-10T16:53:18.873Z,1.60
2018-09-10T16:55:45.818Z,1.73
2018-09-10T16:58:12.779Z,1.80
2018-09-10T17:00:39.795Z,1.40
2018-09-10T17:03:06.719Z,1.10
2018-09-10T17:05:33.657Z,1.10
2018-09-10T17:08:00.891Z,1.47
2018-09-10T17:10:27.889Z,1.80
2018-09-10T17:12:54.835Z,1.73
2018-09-10T17:15:21.813Z,1.40
2018-09-10T17:17:48.747Z,1.70
2018-09-10T17:20:15.712Z,1.87
2018-09-10T17:22:42.683Z,1.60
2018-09-10T17:25:09.648Z,1.50
2018-09-10T17:27:36.578Z,2.03
2018-09-10T17:30:03.760Z,2.00
2018-09-10T17:32:30.695Z,1.33
2018-09-10T17:34:57.649Z,2.13
2018-09-10T17:37:24.604Z,1.70
2018-09-10T17:39:51.611Z,2.00
2018-09-10T17:42:18.595Z,1.60
2018-09-10T17:44:45.494Z,2.43
2018-09-10T17:47:12.638Z,2.20
2018-09-10T17:49:39.436Z,2.10
2018-09-10T17:52:06.335Z,2.93
2018-09-10T17:54:33.450Z,2.17
2018-09-10T17:57:00.400Z,2.23
2018-09-10T17:59:27.352Z,1.83
2018-09-10T18:01:55.184Z,2.67
2018-09-10T18:04:22.164Z,2.03
2018-09-10T18:06:49.131Z,2.40
2018-09-10T18:09:16.102Z,2.27
2018-09-10T18:11:45.075Z,2.43
2018-09-10T18:14:12.556Z,1.93
2018-09-10T18:16:45.966Z,2.57
2018-09-10T18:19:13.531Z,2.80
2018-09-10T18:21:40.501Z,2.93
2018-09-10T18:24:07.446Z,2.20
2018-09-10T18:26:34.432Z,2.80
2018-09-10T18:29:01.389Z,2.00
2018-09-10T18:31:28.331Z,1.97
2018-09-10T18:33:55.320Z,2.43
2018-09-10T18:36:22.211Z,2.63
2018-09-10T18:38:51.587Z,2.67
2018-09-10T18:41:29.405Z,2.33
2018-09-10T18:43:56.328Z,2.20
2018-09-10T18:46:23.255Z,3.40
2018-09-10T18:48:50.272Z,2.90
2018-09-10T18:51:17.175Z,2.93
2018-09-10T18:53:49.071Z,2.63
2018-09-10T18:56:16.047Z,2.40
2018-09-10T18:58:43.279Z,2.50
2018-09-10T19:01:12.447Z,3.30
2018-09-10T19:03:49.191Z,3.60
2018-09-10T19:06:21.090Z,3.80
2018-09-10T19:08:48.583Z,3.80
2018-09-10T19:11:20.099Z,3.40
2018-09-10T19:13:55.775Z,3.37
2018-09-10T19:16:24.569Z,2.50
2018-09-10T19:18:51.526Z,2.37
2018-09-10T19:21:19.451Z,2.60
2018-09-10T19:23:52.503Z,2.87
2018-09-10T19:26:25.499Z,2.77
2018-09-10T19:28:52.460Z,2.10
2018-09-10T19:31:20.292Z,2.60
2018-09-10T19:33:47.287Z,2.80
2018-09-10T19:36:14.275Z,2.60
2018-09-10T19:38:41.256Z,2.00
2018-09-10T19:41:08.148Z,2.17
2018-09-10T19:43:35.133Z,2.97
2018-09-10T19:46:02.126Z,2.30
2018-09-10T19:48:30.107Z,2.73
2018-09-10T19:50:57.069Z,2.50
2018-09-10T19:53:23.996Z,2.77
2018-09-10T19:55:50.996Z,2.60
2018-09-10T19:58:17.940Z,2.50
2018-09-10T20:00:44.843Z,2.43
2018-09-10T20:03:11.782Z,2.43
2018-09-10T20:05:38.756Z,2.60
2018-09-10T20:08:05.741Z,2.40
2018-09-10T20:10:32.744Z,2.70
2018-09-10T20:12:59.733Z,2.90
2018-09-10T20:15:29.855Z,2.90
2018-09-10T20:17:56.832Z,2.97
2018-09-10T20:20:23.805Z,3.20
2018-09-10T20:22:52.785Z,2.77
2018-09-10T20:25:25.991Z,2.80
2018-09-10T20:27:52.951Z,3.10
2018-09-10T20:30:23.720Z,3.27
2018-09-10T20:32:50.656Z,3.13
2018-09-10T20:37:56.659Z,2.93
2018-09-10T20:40:23.619Z,2.90
2018-09-10T20:42:58.361Z,3.20
2018-09-10T20:45:28.179Z,3.03
2018-09-10T20:47:55.095Z,3.10
2018-09-10T20:50:23.127Z,3.60
2018-09-10T20:52:51.131Z,3.23
2018-09-10T20:55:18.706Z,3.40
2018-09-10T20:57:45.603Z,3.30
2018-09-10T21:00:12.589Z,3.33
2018-09-10T21:02:39.551Z,3.30
2018-09-10T21:05:06.500Z,3.70
2018-09-10T21:07:33.489Z,3.40
2018-09-10T21:10:00.424Z,3.10
2018-09-10T21:12:27.393Z,3.73
2018-09-10T21:14:54.323Z,3.77
2018-09-10T21:17:21.298Z,3.17
2018-09-10T21:19:49.139Z,3.60
2018-09-10T21:22:16.119Z,4.13
2018-09-10T21:24:43.088Z,3.63
2018-09-10T21:27:12.111Z,3.80
2018-09-10T21:29:43.660Z,3.30
2018-09-10T21:32:10.683Z,3.80
2018-09-10T21:34:39.715Z,3.70
2018-09-10T21:37:07.187Z,3.80
2018-09-10T21:39:34.138Z,7.30
2018-09-10T21:42:01.314Z,4.80
2018-09-10T21:44:28.255Z,3.33
2018-09-10T21:46:55.236Z,3.90
2018-09-10T21:49:22.171Z,4.00
2018-09-10T21:51:50.196Z,3.60
2018-09-10T21:54:17.144Z,3.63
2018-09-10T21:57:00.780Z,3.33
2018-09-10T21:59:28.779Z,4.00
2018-09-10T22:01:56.755Z,3.87
2018-09-10T22:04:25.198Z,3.47
2018-09-10T22:06:55.177Z,4.30
2018-09-10T22:09:22.107Z,4.70
2018-09-10T22:11:54.715Z,4.43
2018-09-10T22:14:21.679Z,4.00
2018-09-10T22:16:50.616Z,3.70
2018-09-10T22:19:22.256Z,3.33
2018-09-10T22:21:49.183Z,3.57
2018-09-10T22:24:16.152Z,3.60
2018-09-10T22:26:45.160Z,3.50
2018-09-10T22:29:12.099Z,3.60
2018-09-10T22:31:39.063Z,3.43
2018-09-10T22:34:07.083Z,4.10
2018-09-10T22:36:34.855Z,4.20
2018-09-10T22:39:01.851Z,3.30
2018-09-10T22:41:28.834Z,3.80
2018-09-10T22:43:55.799Z,3.40
2018-09-10T22:46:22.779Z,3.60
2018-09-10T22:48:49.687Z,3.83
2018-09-10T22:51:18.083Z,3.77
2018-09-10T22:53:49.800Z,3.90
2018-09-10T22:56:16.703Z,4.10
2018-09-10T22:58:43.703Z,4.10
2018-09-10T23:01:10.654Z,4.40
2018-09-10T23:03:37.611Z,3.50
2018-09-10T23:06:04.593Z,4.07
2018-09-10T23:08:32.506Z,4.03
2018-09-10T23:11:02.382Z,3.50
2018-09-10T23:13:30.271Z,3.67
2018-09-10T23:15:57.224Z,3.83
2018-09-10T23:18:31.062Z,3.60
2018-09-10T23:20:58.020Z,3.47
2018-09-10T23:23:24.919Z,3.30
2018-09-10T23:25:57.431Z,3.43
2018-09-10T23:28:24.363Z,3.60
2018-09-10T23:30:53.391Z,4.20
2018-09-10T23:33:20.328Z,3.87
2018-09-10T23:35:47.330Z,4.50
2018-09-10T23:38:17.539Z,4.67
2018-09-10T23:40:44.474Z,4.33
2018-09-10T23:43:11.441Z,3.90
2018-09-10T23:45:38.438Z,3.90
2018-09-10T23:48:05.606Z,3.77
2018-09-10T23:50:32.627Z,3.47
2018-09-10T23:53:02.595Z,4.30
2018-09-10T23:55:29.515Z,4.00
2018-09-10T23:57:56.455Z,4.07
